sensor_id;sensor_type;location;lat;lon;timestamp;P1;durP1;ratioP1;P2;durP2;ratioP2
23555;SDS011;11956;53.184;8.578;2023-05-23T00:02:51;13.85;;;10.60;;
23555;SDS011;11956;53.184;8.578;2023-05-23T00:05:52;13.35;;;11.40;;
23555;SDS011;11956;53.184;8.578;2023-05-23T00:08:53;13.88;;;10.80;;
23555;SDS011;11956;53.184;8.578;2023-05-23T00:11:54;13.27;;;10.27;;
23555;SDS011;11956;53.184;8.578;2023-05-23T00:14:55;13.50;;;10.75;;
23555;SDS011;11956;53.184;8.578;2023-05-23T00:17:56;13.02;;;10.90;;
23555;SDS011;11956;53.184;8.578;2023-05-23T00:20:59;12.90;;;10.32;;
23555;SDS011;11956;53.184;8.578;2023-05-23T00:24:00;14.38;;;9.98;;
23555;SDS011;11956;53.184;8.578;2023-05-23T00:27:01;10.70;;;9.15;;
23555;SDS011;11956;53.184;8.578;2023-05-23T00:30:03;10.98;;;9.35;;
23555;SDS011;11956;53.184;8.578;2023-05-23T00:33:04;10.82;;;8.50;;
23555;SDS011;11956;53.184;8.578;2023-05-23T00:36:05;11.10;;;9.48;;
23555;SDS011;11956;53.184;8.578;2023-05-23T00:39:06;10.68;;;8.23;;
23555;SDS011;11956;53.184;8.578;2023-05-23T00:42:07;12.13;;;8.60;;
23555;SDS011;11956;53.184;8.578;2023-05-23T00:45:08;11.52;;;9.07;;
23555;SDS011;11956;53.184;8.578;2023-05-23T00:48:11;12.70;;;9.47;;
23555;SDS011;11956;53.184;8.578;2023-05-23T00:51:12;10.95;;;8.77;;
23555;SDS011;11956;53.184;8.578;2023-05-23T00:54:13;11.75;;;9.32;;
23555;SDS011;11956;53.184;8.578;2023-05-23T00:57:18;11.95;;;9.55;;
23555;SDS011;11956;53.184;8.578;2023-05-23T01:00:18;12.02;;;9.57;;
23555;SDS011;11956;53.184;8.578;2023-05-23T01:03:19;11.38;;;9.32;;
23555;SDS011;11956;53.184;8.578;2023-05-23T01:06:20;12.23;;;9.77;;
23555;SDS011;11956;53.184;8.578;2023-05-23T01:09:22;11.18;;;9.30;;
23555;SDS011;11956;53.184;8.578;2023-05-23T01:15:39;14.68;;;10.23;;
23555;SDS011;11956;53.184;8.578;2023-05-23T01:18:58;13.48;;;10.32;;
23555;SDS011;11956;53.184;8.578;2023-05-23T01:29:23;12.07;;;10.27;;
23555;SDS011;11956;53.184;8.578;2023-05-23T01:32:28;13.02;;;10.60;;
23555;SDS011;11956;53.184;8.578;2023-05-23T01:35:32;13.38;;;10.93;;
23555;SDS011;11956;53.184;8.578;2023-05-23T01:38:33;13.60;;;10.95;;
23555;SDS011;11956;53.184;8.578;2023-05-23T01:41:34;13.68;;;10.93;;
23555;SDS011;11956;53.184;8.578;2023-05-23T01:44:35;15.30;;;11.85;;
23555;SDS011;11956;53.184;8.578;2023-05-23T01:47:38;15.32;;;11.73;;
23555;SDS011;11956;53.184;8.578;2023-05-23T01:50:41;13.93;;;11.48;;
23555;SDS011;11956;53.184;8.578;2023-05-23T01:53:45;14.18;;;11.73;;
23555;SDS011;11956;53.184;8.578;2023-05-23T01:56:46;15.02;;;11.82;;
23555;SDS011;11956;53.184;8.578;2023-05-23T01:59:48;18.73;;;14.27;;
23555;SDS011;11956;53.184;8.578;2023-05-23T02:02:50;22.48;;;16.25;;
23555;SDS011;11956;53.184;8.578;2023-05-23T02:05:51;23.98;;;17.95;;
23555;SDS011;11956;53.184;8.578;2023-05-23T02:08:52;26.58;;;18.52;;
23555;SDS011;11956;53.184;8.578;2023-05-23T02:11:53;28.92;;;20.38;;
23555;SDS011;11956;53.184;8.578;2023-05-23T02:14:54;33.05;;;21.00;;
23555;SDS011;11956;53.184;8.578;2023-05-23T02:17:56;35.35;;;23.38;;
23555;SDS011;11956;53.184;8.578;2023-05-23T02:20:56;43.05;;;26.13;;
23555;SDS011;11956;53.184;8.578;2023-05-23T02:23:57;42.50;;;26.35;;
23555;SDS011;11956;53.184;8.578;2023-05-23T02:26:59;41.53;;;25.73;;
23555;SDS011;11956;53.184;8.578;2023-05-23T02:30:00;43.22;;;26.75;;
23555;SDS011;11956;53.184;8.578;2023-05-23T02:33:03;46.28;;;28.27;;
23555;SDS011;11956;53.184;8.578;2023-05-23T02:36:07;49.45;;;29.63;;
23555;SDS011;11956;53.184;8.578;2023-05-23T02:39:08;49.42;;;30.10;;
23555;SDS011;11956;53.184;8.578;2023-05-23T02:42:09;50.67;;;31.75;;
23555;SDS011;11956;53.184;8.578;2023-05-23T02:45:10;59.60;;;32.05;;
23555;SDS011;11956;53.184;8.578;2023-05-23T02:48:12;54.67;;;31.73;;
23555;SDS011;11956;53.184;8.578;2023-05-23T02:51:13;59.58;;;33.58;;
23555;SDS011;11956;53.184;8.578;2023-05-23T02:54:14;62.92;;;35.33;;
23555;SDS011;11956;53.184;8.578;2023-05-23T02:57:15;68.40;;;36.40;;
23555;SDS011;11956;53.184;8.578;2023-05-23T03:00:17;67.03;;;35.70;;
23555;SDS011;11956;53.184;8.578;2023-05-23T03:03:23;66.30;;;36.47;;
23555;SDS011;11956;53.184;8.578;2023-05-23T03:06:23;68.75;;;36.90;;
23555;SDS011;11956;53.184;8.578;2023-05-23T03:09:26;59.50;;;34.80;;
23555;SDS011;11956;53.184;8.578;2023-05-23T03:12:27;66.55;;;32.90;;
23555;SDS011;11956;53.184;8.578;2023-05-23T03:15:28;67.70;;;33.78;;
23555;SDS011;11956;53.184;8.578;2023-05-23T03:18:29;57.58;;;32.00;;
23555;SDS011;11956;53.184;8.578;2023-05-23T03:21:31;56.55;;;31.50;;
23555;SDS011;11956;53.184;8.578;2023-05-23T03:24:32;52.53;;;29.23;;
23555;SDS011;11956;53.184;8.578;2023-05-23T03:27:33;53.83;;;29.63;;
23555;SDS011;11956;53.184;8.578;2023-05-23T03:30:34;50.88;;;29.55;;
23555;SDS011;11956;53.184;8.578;2023-05-23T03:33:35;49.30;;;28.77;;
23555;SDS011;11956;53.184;8.578;2023-05-23T03:36:35;54.58;;;31.80;;
23555;SDS011;11956;53.184;8.578;2023-05-23T03:39:39;53.28;;;31.50;;
23555;SDS011;11956;53.184;8.578;2023-05-23T03:42:40;56.38;;;31.10;;
23555;SDS011;11956;53.184;8.578;2023-05-23T03:45:42;53.90;;;29.48;;
23555;SDS011;11956;53.184;8.578;2023-05-23T03:48:47;57.47;;;30.77;;
23555;SDS011;11956;53.184;8.578;2023-05-23T03:51:48;65.40;;;32.38;;
23555;SDS011;11956;53.184;8.578;2023-05-23T03:54:50;61.25;;;30.85;;
23555;SDS011;11956;53.184;8.578;2023-05-23T03:57:51;60.15;;;32.45;;
23555;SDS011;11956;53.184;8.578;2023-05-23T04:00:53;63.63;;;34.78;;
23555;SDS011;11956;53.184;8.578;2023-05-23T04:03:55;64.63;;;33.90;;
23555;SDS011;11956;53.184;8.578;2023-05-23T04:06:58;70.80;;;34.47;;
23555;SDS011;11956;53.184;8.578;2023-05-23T04:09:59;64.25;;;36.05;;
23555;SDS011;11956;53.184;8.578;2023-05-23T04:13:00;57.03;;;36.17;;
23555;SDS011;11956;53.184;8.578;2023-05-23T04:16:02;60.85;;;34.78;;
23555;SDS011;11956;53.184;8.578;2023-05-23T04:19:05;53.65;;;31.60;;
23555;SDS011;11956;53.184;8.578;2023-05-23T04:22:07;48.70;;;30.38;;
23555;SDS011;11956;53.184;8.578;2023-05-23T04:25:09;40.42;;;27.92;;
23555;SDS011;11956;53.184;8.578;2023-05-23T04:28:17;45.42;;;29.85;;
23555;SDS011;11956;53.184;8.578;2023-05-23T04:31:18;38.85;;;27.02;;
23555;SDS011;11956;53.184;8.578;2023-05-23T04:37:22;36.75;;;24.25;;
23555;SDS011;11956;53.184;8.578;2023-05-23T04:40:26;34.38;;;24.92;;
23555;SDS011;11956;53.184;8.578;2023-05-23T04:43:47;37.55;;;23.05;;
23555;SDS011;11956;53.184;8.578;2023-05-23T04:47:07;33.28;;;22.80;;
23555;SDS011;11956;53.184;8.578;2023-05-23T04:50:46;35.42;;;22.75;;
23555;SDS011;11956;53.184;8.578;2023-05-23T04:53:48;38.95;;;23.88;;
23555;SDS011;11956;53.184;8.578;2023-05-23T04:56:51;43.30;;;26.30;;
23555;SDS011;11956;53.184;8.578;2023-05-23T04:59:53;41.70;;;25.97;;
23555;SDS011;11956;53.184;8.578;2023-05-23T05:02:56;48.45;;;26.40;;
23555;SDS011;11956;53.184;8.578;2023-05-23T05:06:01;39.78;;;24.98;;
23555;SDS011;11956;53.184;8.578;2023-05-23T05:09:03;39.45;;;24.45;;
23555;SDS011;11956;53.184;8.578;2023-05-23T05:12:04;38.58;;;23.27;;
23555;SDS011;11956;53.184;8.578;2023-05-23T05:15:05;40.85;;;22.42;;
23555;SDS011;11956;53.184;8.578;2023-05-23T05:18:24;40.00;;;23.77;;
23555;SDS011;11956;53.184;8.578;2023-05-23T05:21:27;43.08;;;20.90;;
23555;SDS011;11956;53.184;8.578;2023-05-23T05:24:28;40.10;;;20.95;;
23555;SDS011;11956;53.184;8.578;2023-05-23T05:27:30;36.72;;;19.63;;
23555;SDS011;11956;53.184;8.578;2023-05-23T05:30:32;42.25;;;20.00;;
23555;SDS011;11956;53.184;8.578;2023-05-23T05:33:35;34.25;;;19.17;;
23555;SDS011;11956;53.184;8.578;2023-05-23T05:36:42;36.67;;;16.50;;
23555;SDS011;11956;53.184;8.578;2023-05-23T05:39:48;31.92;;;14.73;;
23555;SDS011;11956;53.184;8.578;2023-05-23T05:42:49;34.95;;;15.05;;
23555;SDS011;11956;53.184;8.578;2023-05-23T05:45:50;34.80;;;14.50;;
23555;SDS011;11956;53.184;8.578;2023-05-23T05:48:51;34.50;;;13.43;;
23555;SDS011;11956;53.184;8.578;2023-05-23T05:51:53;32.60;;;13.52;;
23555;SDS011;11956;53.184;8.578;2023-05-23T05:54:54;34.15;;;13.63;;
23555;SDS011;11956;53.184;8.578;2023-05-23T05:57:57;38.88;;;13.43;;
23555;SDS011;11956;53.184;8.578;2023-05-23T06:01:01;36.00;;;12.98;;
23555;SDS011;11956;53.184;8.578;2023-05-23T06:04:02;37.30;;;13.82;;
23555;SDS011;11956;53.184;8.578;2023-05-23T06:07:04;38.97;;;12.70;;
23555;SDS011;11956;53.184;8.578;2023-05-23T06:10:05;36.70;;;12.48;;
23555;SDS011;11956;53.184;8.578;2023-05-23T06:13:07;32.70;;;10.90;;
23555;SDS011;11956;53.184;8.578;2023-05-23T06:16:10;34.47;;;11.15;;
23555;SDS011;11956;53.184;8.578;2023-05-23T06:19:11;26.90;;;10.57;;
23555;SDS011;11956;53.184;8.578;2023-05-23T06:22:14;28.13;;;8.02;;
23555;SDS011;11956;53.184;8.578;2023-05-23T06:25:15;24.83;;;8.00;;
23555;SDS011;11956;53.184;8.578;2023-05-23T06:28:18;30.33;;;7.32;;
23555;SDS011;11956;53.184;8.578;2023-05-23T06:31:19;27.45;;;7.38;;
23555;SDS011;11956;53.184;8.578;2023-05-23T06:34:20;26.33;;;6.57;;
23555;SDS011;11956;53.184;8.578;2023-05-23T06:37:21;25.30;;;6.43;;
23555;SDS011;11956;53.184;8.578;2023-05-23T06:40:22;24.27;;;6.20;;
23555;SDS011;11956;53.184;8.578;2023-05-23T06:43:25;32.45;;;6.20;;
23555;SDS011;11956;53.184;8.578;2023-05-23T06:46:26;20.23;;;5.53;;
23555;SDS011;11956;53.184;8.578;2023-05-23T06:49:27;21.48;;;5.40;;
23555;SDS011;11956;53.184;8.578;2023-05-23T06:52:29;20.30;;;5.22;;
23555;SDS011;11956;53.184;8.578;2023-05-23T06:58:44;17.80;;;4.55;;
23555;SDS011;11956;53.184;8.578;2023-05-23T07:01:46;16.85;;;5.45;;
23555;SDS011;11956;53.184;8.578;2023-05-23T07:04:49;20.88;;;5.05;;
23555;SDS011;11956;53.184;8.578;2023-05-23T07:08:06;20.70;;;5.32;;
23555;SDS011;11956;53.184;8.578;2023-05-23T07:11:10;22.45;;;5.15;;
23555;SDS011;11956;53.184;8.578;2023-05-23T07:14:14;24.95;;;6.70;;
23555;SDS011;11956;53.184;8.578;2023-05-23T07:17:18;22.55;;;6.05;;
23555;SDS011;11956;53.184;8.578;2023-05-23T07:20:20;14.85;;;5.47;;
23555;SDS011;11956;53.184;8.578;2023-05-23T07:23:24;19.67;;;6.45;;
23555;SDS011;11956;53.184;8.578;2023-05-23T07:26:25;19.40;;;6.43;;
23555;SDS011;11956;53.184;8.578;2023-05-23T07:32:30;23.20;;;6.60;;
23555;SDS011;11956;53.184;8.578;2023-05-23T07:35:31;15.00;;;5.43;;
23555;SDS011;11956;53.184;8.578;2023-05-23T07:38:33;18.83;;;5.05;;
23555;SDS011;11956;53.184;8.578;2023-05-23T07:41:34;15.18;;;5.20;;
23555;SDS011;11956;53.184;8.578;2023-05-23T07:44:35;17.88;;;5.32;;
23555;SDS011;11956;53.184;8.578;2023-05-23T07:47:37;16.02;;;5.28;;
23555;SDS011;11956;53.184;8.578;2023-05-23T07:50:39;19.52;;;5.53;;
23555;SDS011;11956;53.184;8.578;2023-05-23T07:53:40;17.88;;;5.80;;
23555;SDS011;11956;53.184;8.578;2023-05-23T07:56:45;26.77;;;6.88;;
23555;SDS011;11956;53.184;8.578;2023-05-23T07:59:46;22.00;;;6.45;;
23555;SDS011;11956;53.184;8.578;2023-05-23T08:02:48;17.63;;;6.15;;
23555;SDS011;11956;53.184;8.578;2023-05-23T08:05:56;35.85;;;6.65;;
23555;SDS011;11956;53.184;8.578;2023-05-23T08:08:58;25.52;;;5.88;;
23555;SDS011;11956;53.184;8.578;2023-05-23T08:12:01;26.33;;;5.80;;
23555;SDS011;11956;53.184;8.578;2023-05-23T08:15:03;23.58;;;5.85;;
23555;SDS011;11956;53.184;8.578;2023-05-23T08:18:13;22.80;;;5.43;;
23555;SDS011;11956;53.184;8.578;2023-05-23T08:21:14;16.83;;;4.18;;
23555;SDS011;11956;53.184;8.578;2023-05-23T08:24:15;24.30;;;5.88;;
23555;SDS011;11956;53.184;8.578;2023-05-23T08:27:17;19.02;;;4.82;;
23555;SDS011;11956;53.184;8.578;2023-05-23T08:30:23;18.77;;;5.15;;
23555;SDS011;11956;53.184;8.578;2023-05-23T08:33:26;24.63;;;4.13;;
23555;SDS011;11956;53.184;8.578;2023-05-23T08:36:30;20.60;;;4.45;;
23555;SDS011;11956;53.184;8.578;2023-05-23T08:39:35;17.00;;;4.90;;
23555;SDS011;11956;53.184;8.578;2023-05-23T08:42:58;26.80;;;5.38;;
23555;SDS011;11956;53.184;8.578;2023-05-23T08:46:00;18.35;;;4.85;;
23555;SDS011;11956;53.184;8.578;2023-05-23T08:49:05;18.52;;;4.90;;
23555;SDS011;11956;53.184;8.578;2023-05-23T08:52:09;18.60;;;5.60;;
23555;SDS011;11956;53.184;8.578;2023-05-23T08:55:15;23.42;;;5.38;;
23555;SDS011;11956;53.184;8.578;2023-05-23T08:58:17;18.40;;;4.70;;
23555;SDS011;11956;53.184;8.578;2023-05-23T09:01:29;18.38;;;4.70;;
23555;SDS011;11956;53.184;8.578;2023-05-23T09:04:36;19.48;;;5.47;;
23555;SDS011;11956;53.184;8.578;2023-05-23T09:07:44;19.90;;;5.18;;
23555;SDS011;11956;53.184;8.578;2023-05-23T09:10:47;20.67;;;4.87;;
23555;SDS011;11956;53.184;8.578;2023-05-23T09:13:53;20.17;;;5.50;;
23555;SDS011;11956;53.184;8.578;2023-05-23T09:17:00;15.00;;;3.97;;
23555;SDS011;11956;53.184;8.578;2023-05-23T09:20:02;23.38;;;4.50;;
23555;SDS011;11956;53.184;8.578;2023-05-23T09:23:16;13.90;;;4.05;;
23555;SDS011;11956;53.184;8.578;2023-05-23T09:26:18;25.45;;;4.07;;
23555;SDS011;11956;53.184;8.578;2023-05-23T09:29:19;17.30;;;3.90;;
23555;SDS011;11956;53.184;8.578;2023-05-23T09:32:20;18.23;;;4.25;;
23555;SDS011;11956;53.184;8.578;2023-05-23T09:35:21;21.65;;;4.28;;
23555;SDS011;11956;53.184;8.578;2023-05-23T09:38:23;19.83;;;4.15;;
23555;SDS011;11956;53.184;8.578;2023-05-23T09:41:23;17.38;;;4.03;;
23555;SDS011;11956;53.184;8.578;2023-05-23T09:44:25;19.13;;;3.88;;
23555;SDS011;11956;53.184;8.578;2023-05-23T09:47:27;21.90;;;3.70;;
23555;SDS011;11956;53.184;8.578;2023-05-23T09:50:29;17.70;;;4.22;;
23555;SDS011;11956;53.184;8.578;2023-05-23T09:53:32;15.20;;;3.40;;
23555;SDS011;11956;53.184;8.578;2023-05-23T09:56:35;15.13;;;3.80;;
23555;SDS011;11956;53.184;8.578;2023-05-23T09:59:44;18.75;;;3.65;;
23555;SDS011;11956;53.184;8.578;2023-05-23T10:09:32;17.98;;;3.38;;
23555;SDS011;11956;53.184;8.578;2023-05-23T10:12:43;16.00;;;4.00;;
23555;SDS011;11956;53.184;8.578;2023-05-23T10:15:54;17.48;;;3.78;;
23555;SDS011;11956;53.184;8.578;2023-05-23T10:22:47;19.05;;;3.78;;
23555;SDS011;11956;53.184;8.578;2023-05-23T10:25:49;18.95;;;3.63;;
23555;SDS011;11956;53.184;8.578;2023-05-23T10:28:51;20.35;;;3.70;;
23555;SDS011;11956;53.184;8.578;2023-05-23T10:31:56;18.65;;;3.75;;
23555;SDS011;11956;53.184;8.578;2023-05-23T10:35:02;14.93;;;3.83;;
23555;SDS011;11956;53.184;8.578;2023-05-23T10:41:54;21.40;;;4.85;;
23555;SDS011;11956;53.184;8.578;2023-05-23T10:45:14;19.27;;;3.88;;
23555;SDS011;11956;53.184;8.578;2023-05-23T10:51:37;20.17;;;4.05;;
23555;SDS011;11956;53.184;8.578;2023-05-23T10:54:42;19.55;;;3.88;;
23555;SDS011;11956;53.184;8.578;2023-05-23T10:58:07;13.07;;;3.70;;
23555;SDS011;11956;53.184;8.578;2023-05-23T11:01:20;18.27;;;3.47;;
23555;SDS011;11956;53.184;8.578;2023-05-23T11:04:25;18.83;;;4.03;;
23555;SDS011;11956;53.184;8.578;2023-05-23T11:07:27;16.23;;;3.90;;
23555;SDS011;11956;53.184;8.578;2023-05-23T11:10:32;14.10;;;3.45;;
23555;SDS011;11956;53.184;8.578;2023-05-23T11:16:52;14.98;;;3.80;;
23555;SDS011;11956;53.184;8.578;2023-05-23T11:23:07;22.08;;;4.47;;
23555;SDS011;11956;53.184;8.578;2023-05-23T11:29:32;19.30;;;4.70;;
23555;SDS011;11956;53.184;8.578;2023-05-23T11:32:33;13.77;;;4.18;;
23555;SDS011;11956;53.184;8.578;2023-05-23T11:35:35;17.23;;;4.25;;
23555;SDS011;11956;53.184;8.578;2023-05-23T11:38:36;16.77;;;3.75;;
23555;SDS011;11956;53.184;8.578;2023-05-23T11:41:37;16.38;;;3.90;;
23555;SDS011;11956;53.184;8.578;2023-05-23T11:44:38;13.52;;;3.22;;
23555;SDS011;11956;53.184;8.578;2023-05-23T11:47:40;16.88;;;3.67;;
23555;SDS011;11956;53.184;8.578;2023-05-23T11:50:51;14.18;;;3.75;;
23555;SDS011;11956;53.184;8.578;2023-05-23T11:53:53;15.30;;;3.38;;
23555;SDS011;11956;53.184;8.578;2023-05-23T11:56:54;18.60;;;3.80;;
23555;SDS011;11956;53.184;8.578;2023-05-23T11:59:56;18.10;;;4.30;;
23555;SDS011;11956;53.184;8.578;2023-05-23T12:02:57;15.38;;;3.78;;
23555;SDS011;11956;53.184;8.578;2023-05-23T12:05:58;16.17;;;4.15;;
23555;SDS011;11956;53.184;8.578;2023-05-23T12:08:59;18.52;;;3.67;;
23555;SDS011;11956;53.184;8.578;2023-05-23T12:12:00;17.23;;;4.00;;
23555;SDS011;11956;53.184;8.578;2023-05-23T12:15:02;18.27;;;3.47;;
23555;SDS011;11956;53.184;8.578;2023-05-23T12:18:04;22.42;;;3.80;;
23555;SDS011;11956;53.184;8.578;2023-05-23T12:21:07;19.45;;;4.00;;
23555;SDS011;11956;53.184;8.578;2023-05-23T12:24:26;16.02;;;3.40;;
23555;SDS011;11956;53.184;8.578;2023-05-23T12:27:27;21.20;;;4.10;;
23555;SDS011;11956;53.184;8.578;2023-05-23T12:33:41;15.60;;;3.22;;
23555;SDS011;11956;53.184;8.578;2023-05-23T12:36:44;15.40;;;3.20;;
23555;SDS011;11956;53.184;8.578;2023-05-23T12:42:49;15.63;;;3.30;;
23555;SDS011;11956;53.184;8.578;2023-05-23T12:45:53;16.05;;;2.97;;
23555;SDS011;11956;53.184;8.578;2023-05-23T12:48:54;15.45;;;3.75;;
23555;SDS011;11956;53.184;8.578;2023-05-23T12:51:56;19.73;;;3.30;;
23555;SDS011;11956;53.184;8.578;2023-05-23T12:54:57;18.98;;;3.88;;
23555;SDS011;11956;53.184;8.578;2023-05-23T12:57:58;18.05;;;3.70;;
23555;SDS011;11956;53.184;8.578;2023-05-23T13:00:59;16.17;;;3.55;;
23555;SDS011;11956;53.184;8.578;2023-05-23T13:04:04;13.05;;;3.38;;
23555;SDS011;11956;53.184;8.578;2023-05-23T13:07:05;17.42;;;3.58;;
23555;SDS011;11956;53.184;8.578;2023-05-23T13:14:43;12.27;;;3.50;;
23555;SDS011;11956;53.184;8.578;2023-05-23T13:17:45;14.15;;;3.15;;
23555;SDS011;11956;53.184;8.578;2023-05-23T13:20:46;18.63;;;3.75;;
23555;SDS011;11956;53.184;8.578;2023-05-23T13:23:47;17.73;;;3.33;;
23555;SDS011;11956;53.184;8.578;2023-05-23T13:26:48;15.27;;;3.15;;
23555;SDS011;11956;53.184;8.578;2023-05-23T13:29:48;12.82;;;2.53;;
23555;SDS011;11956;53.184;8.578;2023-05-23T13:32:49;16.48;;;3.17;;
23555;SDS011;11956;53.184;8.578;2023-05-23T13:35:50;13.65;;;3.17;;
23555;SDS011;11956;53.184;8.578;2023-05-23T13:38:52;11.25;;;2.90;;
23555;SDS011;11956;53.184;8.578;2023-05-23T13:41:52;15.27;;;3.70;;
23555;SDS011;11956;53.184;8.578;2023-05-23T13:44:53;15.50;;;2.67;;
23555;SDS011;11956;53.184;8.578;2023-05-23T13:47:54;12.85;;;2.47;;
23555;SDS011;11956;53.184;8.578;2023-05-23T13:50:55;11.68;;;3.10;;
23555;SDS011;11956;53.184;8.578;2023-05-23T13:53:56;13.60;;;2.38;;
23555;SDS011;11956;53.184;8.578;2023-05-23T13:56:57;14.07;;;3.15;;
23555;SDS011;11956;53.184;8.578;2023-05-23T13:59:59;13.73;;;2.85;;
23555;SDS011;11956;53.184;8.578;2023-05-23T14:03:05;14.77;;;2.65;;
23555;SDS011;11956;53.184;8.578;2023-05-23T14:06:07;12.40;;;2.88;;
23555;SDS011;11956;53.184;8.578;2023-05-23T14:09:08;16.77;;;3.20;;
23555;SDS011;11956;53.184;8.578;2023-05-23T14:12:09;11.15;;;2.42;;
23555;SDS011;11956;53.184;8.578;2023-05-23T14:15:10;11.68;;;2.50;;
23555;SDS011;11956;53.184;8.578;2023-05-23T14:18:11;11.85;;;2.33;;
23555;SDS011;11956;53.184;8.578;2023-05-23T14:21:12;14.05;;;3.00;;
23555;SDS011;11956;53.184;8.578;2023-05-23T14:24:13;17.02;;;2.92;;
23555;SDS011;11956;53.184;8.578;2023-05-23T14:27:14;17.38;;;2.97;;
23555;SDS011;11956;53.184;8.578;2023-05-23T14:30:15;15.00;;;2.88;;
23555;SDS011;11956;53.184;8.578;2023-05-23T14:33:16;18.00;;;3.38;;
23555;SDS011;11956;53.184;8.578;2023-05-23T14:36:16;17.40;;;3.10;;
23555;SDS011;11956;53.184;8.578;2023-05-23T14:39:17;13.88;;;3.08;;
23555;SDS011;11956;53.184;8.578;2023-05-23T14:42:18;16.13;;;2.88;;
23555;SDS011;11956;53.184;8.578;2023-05-23T14:45:19;14.13;;;3.38;;
23555;SDS011;11956;53.184;8.578;2023-05-23T14:48:20;15.55;;;2.85;;
23555;SDS011;11956;53.184;8.578;2023-05-23T14:51:21;15.07;;;2.90;;
23555;SDS011;11956;53.184;8.578;2023-05-23T14:54:22;10.85;;;2.40;;
23555;SDS011;11956;53.184;8.578;2023-05-23T14:57:23;15.85;;;3.00;;
23555;SDS011;11956;53.184;8.578;2023-05-23T15:00:24;9.90;;;2.30;;
23555;SDS011;11956;53.184;8.578;2023-05-23T15:03:25;15.95;;;3.03;;
23555;SDS011;11956;53.184;8.578;2023-05-23T15:06:26;21.88;;;3.03;;
23555;SDS011;11956;53.184;8.578;2023-05-23T15:09:27;15.63;;;3.63;;
23555;SDS011;11956;53.184;8.578;2023-05-23T15:12:28;14.45;;;3.55;;
23555;SDS011;11956;53.184;8.578;2023-05-23T15:15:29;19.83;;;3.25;;
23555;SDS011;11956;53.184;8.578;2023-05-23T15:18:36;18.20;;;3.72;;
23555;SDS011;11956;53.184;8.578;2023-05-23T15:21:37;20.17;;;3.25;;
23555;SDS011;11956;53.184;8.578;2023-05-23T15:24:38;18.48;;;3.50;;
23555;SDS011;11956;53.184;8.578;2023-05-23T15:27:38;16.85;;;3.30;;
23555;SDS011;11956;53.184;8.578;2023-05-23T15:30:39;14.57;;;2.97;;
23555;SDS011;11956;53.184;8.578;2023-05-23T15:33:42;21.33;;;3.28;;
23555;SDS011;11956;53.184;8.578;2023-05-23T15:36:43;20.75;;;2.90;;
23555;SDS011;11956;53.184;8.578;2023-05-23T15:39:43;17.70;;;3.22;;
23555;SDS011;11956;53.184;8.578;2023-05-23T15:42:44;15.00;;;2.80;;
23555;SDS011;11956;53.184;8.578;2023-05-23T15:45:45;13.45;;;2.72;;
23555;SDS011;11956;53.184;8.578;2023-05-23T15:48:48;19.15;;;3.33;;
23555;SDS011;11956;53.184;8.578;2023-05-23T15:51:49;15.57;;;3.05;;
23555;SDS011;11956;53.184;8.578;2023-05-23T15:54:51;21.00;;;3.05;;
23555;SDS011;11956;53.184;8.578;2023-05-23T15:57:52;18.50;;;3.35;;
23555;SDS011;11956;53.184;8.578;2023-05-23T16:00:53;20.20;;;3.55;;
23555;SDS011;11956;53.184;8.578;2023-05-23T16:03:54;17.17;;;4.13;;
23555;SDS011;11956;53.184;8.578;2023-05-23T16:06:56;19.80;;;3.47;;
23555;SDS011;11956;53.184;8.578;2023-05-23T16:09:57;22.48;;;4.38;;
23555;SDS011;11956;53.184;8.578;2023-05-23T16:12:58;27.25;;;3.88;;
23555;SDS011;11956;53.184;8.578;2023-05-23T16:15:59;18.80;;;3.75;;
23555;SDS011;11956;53.184;8.578;2023-05-23T16:19:02;22.50;;;3.90;;
23555;SDS011;11956;53.184;8.578;2023-05-23T16:22:03;14.25;;;3.42;;
23555;SDS011;11956;53.184;8.578;2023-05-23T16:25:04;19.77;;;3.92;;
23555;SDS011;11956;53.184;8.578;2023-05-23T16:28:07;19.10;;;3.30;;
23555;SDS011;11956;53.184;8.578;2023-05-23T16:31:14;18.60;;;3.90;;
23555;SDS011;11956;53.184;8.578;2023-05-23T16:34:15;20.08;;;3.50;;
23555;SDS011;11956;53.184;8.578;2023-05-23T16:37:16;19.55;;;3.30;;
23555;SDS011;11956;53.184;8.578;2023-05-23T16:40:18;17.88;;;3.30;;
23555;SDS011;11956;53.184;8.578;2023-05-23T16:43:19;17.80;;;3.47;;
23555;SDS011;11956;53.184;8.578;2023-05-23T16:46:19;13.05;;;2.88;;
23555;SDS011;11956;53.184;8.578;2023-05-23T16:49:21;15.30;;;2.70;;
23555;SDS011;11956;53.184;8.578;2023-05-23T16:52:22;15.98;;;3.47;;
23555;SDS011;11956;53.184;8.578;2023-05-23T16:55:23;19.60;;;3.78;;
23555;SDS011;11956;53.184;8.578;2023-05-23T16:58:24;21.98;;;3.42;;
23555;SDS011;11956;53.184;8.578;2023-05-23T17:01:25;18.15;;;3.35;;
23555;SDS011;11956;53.184;8.578;2023-05-23T17:04:26;15.07;;;3.25;;
23555;SDS011;11956;53.184;8.578;2023-05-23T17:07:27;13.05;;;3.22;;
23555;SDS011;11956;53.184;8.578;2023-05-23T17:10:27;13.55;;;2.78;;
23555;SDS011;11956;53.184;8.578;2023-05-23T17:13:28;19.13;;;2.75;;
23555;SDS011;11956;53.184;8.578;2023-05-23T17:16:30;12.98;;;2.75;;
23555;SDS011;11956;53.184;8.578;2023-05-23T17:19:33;13.95;;;2.92;;
23555;SDS011;11956;53.184;8.578;2023-05-23T17:22:35;14.93;;;2.78;;
23555;SDS011;11956;53.184;8.578;2023-05-23T17:25:37;14.15;;;2.92;;
23555;SDS011;11956;53.184;8.578;2023-05-23T17:28:38;16.58;;;3.10;;
23555;SDS011;11956;53.184;8.578;2023-05-23T17:31:38;19.67;;;3.10;;
23555;SDS011;11956;53.184;8.578;2023-05-23T17:34:39;17.00;;;3.35;;
23555;SDS011;11956;53.184;8.578;2023-05-23T17:37:41;16.95;;;2.75;;
23555;SDS011;11956;53.184;8.578;2023-05-23T17:40:43;23.73;;;3.42;;
23555;SDS011;11956;53.184;8.578;2023-05-23T17:43:44;19.75;;;3.00;;
23555;SDS011;11956;53.184;8.578;2023-05-23T17:46:45;17.60;;;3.30;;
23555;SDS011;11956;53.184;8.578;2023-05-23T17:49:46;21.02;;;3.08;;
23555;SDS011;11956;53.184;8.578;2023-05-23T17:52:47;17.20;;;3.38;;
23555;SDS011;11956;53.184;8.578;2023-05-23T17:55:49;17.17;;;3.00;;
23555;SDS011;11956;53.184;8.578;2023-05-23T17:58:50;19.27;;;3.55;;
23555;SDS011;11956;53.184;8.578;2023-05-23T18:01:51;23.20;;;2.85;;
23555;SDS011;11956;53.184;8.578;2023-05-23T18:04:53;16.75;;;2.70;;
23555;SDS011;11956;53.184;8.578;2023-05-23T18:07:54;20.48;;;3.33;;
23555;SDS011;11956;53.184;8.578;2023-05-23T18:10:55;20.08;;;3.85;;
23555;SDS011;11956;53.184;8.578;2023-05-23T18:13:56;17.10;;;2.90;;
23555;SDS011;11956;53.184;8.578;2023-05-23T18:16:57;18.23;;;3.05;;
23555;SDS011;11956;53.184;8.578;2023-05-23T18:19:58;15.52;;;3.50;;
23555;SDS011;11956;53.184;8.578;2023-05-23T18:22:58;18.65;;;3.47;;
23555;SDS011;11956;53.184;8.578;2023-05-23T18:25:59;17.58;;;3.35;;
23555;SDS011;11956;53.184;8.578;2023-05-23T18:29:00;20.27;;;4.90;;
23555;SDS011;11956;53.184;8.578;2023-05-23T18:32:03;18.47;;;3.03;;
23555;SDS011;11956;53.184;8.578;2023-05-23T18:35:05;18.38;;;3.45;;
23555;SDS011;11956;53.184;8.578;2023-05-23T18:38:06;19.48;;;3.33;;
23555;SDS011;11956;53.184;8.578;2023-05-23T18:41:07;17.42;;;3.45;;
23555;SDS011;11956;53.184;8.578;2023-05-23T18:44:10;23.75;;;3.75;;
23555;SDS011;11956;53.184;8.578;2023-05-23T18:47:11;13.25;;;3.22;;
23555;SDS011;11956;53.184;8.578;2023-05-23T18:50:12;20.05;;;3.65;;
23555;SDS011;11956;53.184;8.578;2023-05-23T18:53:13;24.55;;;3.78;;
23555;SDS011;11956;53.184;8.578;2023-05-23T18:56:14;14.30;;;3.03;;
23555;SDS011;11956;53.184;8.578;2023-05-23T18:59:15;16.35;;;3.50;;